Time;durP1;ratioP1;P1;durP2;ratioP2;P2;SDS_P1;SDS_P2;PMS_P1;PMS_P2;Temp;Humidity;BMP_temperature;BMP_pressure;BME280_temperature;BME280_humidity;BME280_pressure;Samples;Min_cycle;Max_cycle;Signal;HPM_P1;HPM_P2
2023/06/04 00:00:23;;;;;;;;;;;;;;;16.57;41.70;100682.06;5377864;32;33728;-74
2023/06/04 00:03:25;;;;;;;;;;;;;;;16.81;40.88;100685.06;5380952;32;33746;-74
2023/06/04 00:06:27;;;;;;;;;;;;;;;17.76;39.02;100682.69;5392275;32;34104;-75
2023/06/04 00:09:29;;;;;;;;;;;;;;;16.89;40.72;100686.34;5382453;32;33796;-75
2023/06/04 00:12:31;;;;;;;;;;;;;;;16.93;40.04;100689.62;5384056;32;34122;-74
2023/06/04 00:15:33;;;;;;;;;;;;;;;17.71;37.94;100692.75;5375834;32;33329;-75
2023/06/04 00:18:35;;;;;;;;;;;;;;;16.74;39.88;100690.78;5367261;32;33456;-75
2023/06/04 00:21:37;;;;;;;;;;;;;;;16.32;40.49;100695.91;5391113;32;34525;-75
2023/06/04 00:24:40;;;;;;;;;;;;;;;16.57;39.94;100684.72;5382378;32;34662;-75
2023/06/04 00:27:42;;;;;;;;;;;;;;;17.15;38.21;100676.78;5383609;32;44600;-75
2023/06/04 00:30:44;;;;;;;;;;;;;;;17.19;38.13;100674.75;5382090;32;33151;-74
2023/06/04 00:33:46;;;;;;;;;;;;;;;18.11;36.46;100675.09;5381741;32;34082;-75
2023/06/04 00:36:48;;;;;;;;;;;;;;;17.12;38.19;100682.25;5376479;32;34789;-75
2023/06/04 00:39:50;;;;;;;;;;;;;;;17.02;38.27;100687.28;5364483;32;34943;-76
2023/06/04 00:42:52;;;;;;;;;;;;;;;16.62;39.24;100672.03;5387460;32;35399;-76
2023/06/04 00:45:54;;;;;;;;;;;;;;;16.50;39.42;100674.47;5367163;32;33548;-74
2023/06/04 00:48:56;;;;;;;;;;;;;;;17.27;37.37;100664.53;5389587;32;33586;-75
2023/06/04 00:51:58;;;;;;;;;;;;;;;17.19;37.19;100685.38;5368543;32;35032;-75
2023/06/04 00:55:00;;;;;;;;;;;;;;;16.99;37.54;100682.16;5382844;32;34345;-75
2023/06/04 00:58:04;;;;;;;;;;;;;;;17.26;37.25;100668.13;5394593;32;32306;-74
2023/06/04 01:01:07;;;;;;;;;;;;;;;16.74;38.08;100680.16;5381887;32;33770;-75
2023/06/04 01:04:12;;;;;;;;;;;;;;;16.65;38.43;100675.34;5392384;32;33770;-74
2023/06/04 01:07:14;;;;;;;;;;;;;;;17.73;36.73;100662.50;5371159;32;44964;-75
2023/06/04 01:10:16;;;;;;;;;;;;;;;17.37;37.21;100676.28;5389034;32;33832;-75
2023/06/04 01:13:18;;;;;;;;;;;;;;;17.95;35.84;100666.41;5369394;32;33978;-75
2023/06/04 01:16:20;;;;;;;;;;;;;;;17.32;37.29;100668.63;5367890;32;33228;-74
2023/06/04 01:19:34;;;;;;;;;;;;;;;17.38;37.30;100672.66;5377446;32;34228;-74
2023/06/04 01:22:38;;;;;;;;;;;;;;;17.16;37.77;100675.81;5366192;32;34410;-74
2023/06/04 01:25:43;;;;;;;;;;;;;;;16.65;38.80;100669.19;5390792;32;34369;-74
2023/06/04 01:28:45;;;;;;;;;;;;;;;17.18;37.79;100671.25;5371684;32;35195;-75
2023/06/04 01:31:48;;;;;;;;;;;;;;;16.53;39.40;100665.47;5372421;32;34077;-75
2023/06/04 01:34:50;;;;;;;;;;;;;;;16.65;38.73;100664.75;5375159;32;34791;-74
2023/06/04 01:37:52;;;;;;;;;;;;;;;16.68;38.58;100663.69;5352797;32;33461;-74
2023/06/04 01:40:56;;;;;;;;;;;;;;;17.17;37.57;100671.34;5389132;32;33079;-74
2023/06/04 01:43:58;;;;;;;;;;;;;;;17.30;37.47;100686.44;5383254;32;34341;-75
2023/06/04 01:47:00;;;;;;;;;;;;;;;17.25;37.40;100675.22;5376226;32;34411;-75
2023/06/04 01:50:05;;;;;;;;;;;;;;;16.66;38.83;100674.41;5377319;32;33759;-75
2023/06/04 01:53:07;;;;;;;;;;;;;;;17.30;37.41;100667.84;5385495;32;33705;-75
2023/06/04 01:56:09;;;;;;;;;;;;;;;17.79;36.63;100666.56;5375277;32;34236;-75
2023/06/04 01:59:11;;;;;;;;;;;;;;;17.23;37.45;100663.87;5384796;32;43812;-75
2023/06/04 02:02:14;;;;;;;;;;;;;;;17.69;36.60;100671.59;5383386;32;34319;-75
2023/06/04 02:05:16;;;;;;;;;;;;;;;17.38;37.47;100674.47;5381385;32;33231;-75
2023/06/04 02:08:21;;;;;;;;;;;;;;;17.00;38.49;100675.94;5390259;32;33585;-76
2023/06/04 02:11:23;;;;;;;;;;;;;;;17.02;38.12;100673.16;5381702;32;33470;-74
2023/06/04 02:14:25;;;;;;;;;;;;;;;16.97;38.35;100667.28;5367438;32;34143;-75
2023/06/04 02:17:27;;;;;;;;;;;;;;;16.85;38.82;100679.50;5389966;32;32177;-75
2023/06/04 02:20:29;;;;;;;;;;;;;;;16.93;38.79;100681.69;5380342;32;33596;-75
2023/06/04 02:23:34;;;;;;;;;;;;;;;17.93;37.17;100684.28;5376229;32;33987;-75
2023/06/04 02:26:36;;;;;;;;;;;;;;;17.40;37.82;100681.41;5363079;32;33500;-75
2023/06/04 02:29:38;;;;;;;;;;;;;;;17.12;38.44;100684.91;5375512;32;33733;-75
2023/06/04 02:32:40;;;;;;;;;;;;;;;17.42;37.70;100692.78;5354449;32;44590;-76
2023/06/04 02:35:42;;;;;;;;;;;;;;;17.42;38.10;100694.59;5368020;32;33071;-75
2023/06/04 02:38:45;;;;;;;;;;;;;;;16.65;39.73;100690.41;5393261;32;34038;-75
2023/06/04 02:41:47;;;;;;;;;;;;;;;16.38;40.02;100693.75;5389057;32;33809;-75
2023/06/04 02:44:49;;;;;;;;;;;;;;;17.19;38.24;100688.03;5375356;32;33993;-76
2023/06/04 02:47:51;;;;;;;;;;;;;;;17.62;37.85;100688.03;5379671;32;33684;-76
2023/06/04 02:50:53;;;;;;;;;;;;;;;17.89;36.75;100688.09;5388990;32;33526;-76
2023/06/04 02:53:55;;;;;;;;;;;;;;;17.57;37.67;100688.31;5379337;32;34214;-75
2023/06/04 02:56:57;;;;;;;;;;;;;;;16.65;39.88;100690.41;5364972;32;32979;-74
2023/06/04 02:59:59;;;;;;;;;;;;;;;16.46;40.31;100686.19;5388433;32;33842;-74
2023/06/04 03:03:02;;;;;;;;;;;;;;;16.25;41.16;100685.66;5365794;32;34420;-75
2023/06/04 03:06:04;;;;;;;;;;;;;;;16.71;40.72;100687.44;5375031;32;34079;-75
2023/06/04 03:09:07;;;;;;;;;;;;;;;17.18;39.66;100681.03;5377991;32;33154;-76
2023/06/04 03:12:09;;;;;;;;;;;;;;;16.68;40.84;100682.25;5388273;32;33725;-75
2023/06/04 03:15:11;;;;;;;;;;;;;;;16.97;40.74;100685.88;5368696;32;45330;-75
2023/06/04 03:18:13;;;;;;;;;;;;;;;16.53;41.68;100676.06;5365115;32;33706;-74
2023/06/04 03:21:15;;;;;;;;;;;;;;;16.92;40.97;100677.31;5385728;32;32456;-74
2023/06/04 03:24:17;;;;;;;;;;;;;;;16.56;41.94;100686.53;5378705;32;33634;-74
2023/06/04 03:27:20;;;;;;;;;;;;;;;16.23;42.97;100687.56;5368651;32;34131;-75
2023/06/04 03:30:22;;;;;;;;;;;;;;;16.58;42.03;100684.63;5379406;32;34205;-75
2023/06/04 03:33:24;;;;;;;;;;;;;;;16.30;42.73;100695.16;5388204;32;34426;-74
2023/06/04 03:36:31;;;;;;;;;;;;;;;17.61;40.05;100703.12;5380625;32;34497;-75
2023/06/04 03:39:33;;;;;;;;;;;;;;;17.82;38.91;100699.13;5376290;32;33358;-75
2023/06/04 03:42:35;;;;;;;;;;;;;;;17.24;40.23;100705.41;5364958;32;33882;-75
2023/06/04 03:45:37;;;;;;;;;;;;;;;17.34;40.07;100705.72;5377849;32;35502;-75
2023/06/04 03:48:40;;;;;;;;;;;;;;;17.29;40.46;100699.81;5389539;32;33196;-75
2023/06/04 03:51:43;;;;;;;;;;;;;;;16.96;40.43;100708.91;5378359;32;43329;-75
2023/06/04 03:54:45;;;;;;;;;;;;;;;16.82;40.84;100710.69;5386470;32;33934;-75
2023/06/04 03:57:47;;;;;;;;;;;;;;;17.90;38.86;100719.03;5366969;32;34164;-75
2023/06/04 04:00:49;;;;;;;;;;;;;;;17.78;39.09;100715.37;5364676;32;34176;-75
2023/06/04 04:03:52;;;;;;;;;;;;;;;17.36;40.12;100721.53;5391362;32;34110;-75
2023/06/04 04:06:54;;;;;;;;;;;;;;;16.32;41.79;100717.97;5368421;32;33416;-75
2023/06/04 04:09:56;;;;;;;;;;;;;;;16.54;41.77;100717.59;5374834;32;33842;-75
2023/06/04 04:12:58;;;;;;;;;;;;;;;16.96;41.94;100724.00;5379955;32;33779;-75
2023/06/04 04:16:00;;;;;;;;;;;;;;;17.38;41.12;100724.94;5372262;32;36852;-75
2023/06/04 04:19:02;;;;;;;;;;;;;;;16.88;41.81;100732.41;5368981;32;33344;-76
2023/06/04 04:22:05;;;;;;;;;;;;;;;17.25;41.16;100736.34;5379502;32;33942;-75
2023/06/04 04:25:08;;;;;;;;;;;;;;;17.43;41.09;100733.50;5374899;32;34977;-76
2023/06/04 04:28:10;;;;;;;;;;;;;;;17.35;41.75;100735.78;5381573;32;44845;-75
2023/06/04 04:31:13;;;;;;;;;;;;;;;17.12;42.76;100735.37;5394453;32;33826;-75
2023/06/04 04:34:15;;;;;;;;;;;;;;;17.40;42.51;100739.00;5378079;32;32993;-76
2023/06/04 04:37:20;;;;;;;;;;;;;;;18.03;41.15;100736.78;5394189;32;33859;-75
2023/06/04 04:40:23;;;;;;;;;;;;;;;18.32;40.92;100737.53;5385977;32;36444;-75
2023/06/04 04:43:28;;;;;;;;;;;;;;;18.48;40.27;100736.50;5365137;32;34273;-74
2023/06/04 04:46:31;;;;;;;;;;;;;;;18.17;40.40;100749.19;5391965;32;33805;-75
2023/06/04 04:49:33;;;;;;;;;;;;;;;19.53;37.30;100728.44;5366402;32;32570;-75
2023/06/04 04:52:35;;;;;;;;;;;;;;;19.85;36.69;100728.84;5388590;32;33390;-75
2023/06/04 04:55:37;;;;;;;;;;;;;;;19.79;36.22;100735.47;5381620;32;32872;-76
2023/06/04 04:58:39;;;;;;;;;;;;;;;19.69;35.63;100737.06;5376911;32;32935;-76
2023/06/04 05:01:41;;;;;;;;;;;;;;;20.66;33.85;100731.69;5375785;32;45881;-75
2023/06/04 05:04:44;;;;;;;;;;;;;;;19.49;35.52;100736.66;5381376;32;33541;-75
2023/06/04 05:07:46;;;;;;;;;;;;;;;20.26;33.95;100734.66;5390505;32;33930;-75
2023/06/04 05:10:50;;;;;;;;;;;;;;;18.97;36.11;100731.44;5379246;32;34135;-75
2023/06/04 05:13:55;;;;;;;;;;;;;;;19.81;34.16;100740.69;5376255;32;34038;-75
2023/06/04 05:16:57;;;;;;;;;;;;;;;19.83;34.87;100742.25;5379751;32;34336;-73
2023/06/04 05:20:11;;;;;;;;;;;;;;;19.53;35.62;100739.09;5383385;32;33961;-75
2023/06/04 05:23:13;;;;;;;;;;;;;;;19.21;36.17;100750.22;5394451;32;43338;-74
2023/06/04 05:26:16;;;;;;;;;;;;;;;18.74;36.25;100748.09;5369291;32;33167;-74
2023/06/04 05:29:18;;;;;;;;;;;;;;;19.12;35.57;100754.34;5376744;32;34246;-75
2023/06/04 05:32:22;;;;;;;;;;;;;;;19.74;34.30;100761.59;5381920;32;33873;-74
2023/06/04 05:35:24;;;;;;;;;;;;;;;18.83;34.91;100761.66;5373799;32;34182;-76
2023/06/04 05:38:30;;;;;;;;;;;;;;;18.32;35.69;100768.63;5380883;32;32472;-75
2023/06/04 05:41:32;;;;;;;;;;;;;;;17.84;36.88;100766.34;5362472;32;33725;-75
2023/06/04 05:44:34;;;;;;;;;;;;;;;17.73;36.98;100774.16;5391125;32;34477;-75
2023/06/04 05:47:40;;;;;;;;;;;;;;;18.72;35.40;100774.00;5336016;32;1062126;-75
2023/06/04 05:50:43;;;;;;;;;;;;;;;18.00;36.78;100776.00;5388501;32;33623;-75
2023/06/04 05:53:45;;;;;;;;;;;;;;;18.41;35.79;100754.69;5368076;32;33489;-75
2023/06/04 05:56:47;;;;;;;;;;;;;;;18.71;35.40;100772.28;5371150;32;33790;-74
2023/06/04 05:59:49;;;;;;;;;;;;;;;19.05;34.83;100781.50;5390362;32;33800;-76
2023/06/04 06:02:52;;;;;;;;;;;;;;;18.85;35.58;100773.06;5366132;32;33925;-75
2023/06/04 06:05:55;;;;;;;;;;;;;;;19.01;35.53;100774.72;5389969;32;34381;-74
2023/06/04 06:08:58;;;;;;;;;;;;;;;18.80;36.13;100769.00;5367295;32;33784;-74
2023/06/04 06:12:00;;;;;;;;;;;;;;;19.27;35.07;100760.44;5390038;32;33076;-76
2023/06/04 06:15:02;;;;;;;;;;;;;;;21.33;31.81;100752.41;5367108;32;34086;-76
2023/06/04 06:18:05;;;;;;;;;;;;;;;22.24;29.68;100743.34;5381129;32;33897;-76
2023/06/04 06:21:07;;;;;;;;;;;;;;;22.22;28.97;100756.00;5372049;32;34110;-75
2023/06/04 06:24:10;;;;;;;;;;;;;;;24.52;25.51;100741.31;5379177;32;34266;-75
2023/06/04 06:27:12;;;;;;;;;;;;;;;22.28;28.81;100760.84;5401197;32;43972;-75
2023/06/04 06:30:14;;;;;;;;;;;;;;;22.65;28.41;100761.34;5379671;32;34004;-74
2023/06/04 06:33:21;;;;;;;;;;;;;;;24.83;25.03;100746.53;5390064;32;34348;-75
2023/06/04 06:36:23;;;;;;;;;;;;;;;24.88;24.31;100752.34;5367466;32;33823;-75
2023/06/04 06:39:25;;;;;;;;;;;;;;;23.76;26.66;100767.88;5376892;32;33628;-75
2023/06/04 06:42:32;;;;;;;;;;;;;;;24.00;26.42;100755.91;5383529;32;33849;-76
2023/06/04 06:45:33;;;;;;;;;;;;;;;22.91;27.96;100761.84;5365812;32;34565;-76
2023/06/04 06:48:38;;;;;;;;;;;;;;;23.55;26.62;100758.97;5381471;32;33593;-76
2023/06/04 06:51:40;;;;;;;;;;;;;;;23.90;26.21;100755.06;5385338;32;35299;-74
2023/06/04 06:54:43;;;;;;;;;;;;;;;23.21;27.73;100761.91;5388422;32;33672;-75
2023/06/04 06:57:45;;;;;;;;;;;;;;;22.11;29.22;100781.84;5383878;32;34133;-74
2023/06/04 07:00:47;;;;;;;;;;;;;;;21.79;29.80;100781.72;5379498;32;32944;-75
2023/06/04 07:03:49;;;;;;;;;;;;;;;22.84;28.36;100782.06;5378312;32;34233;-75
2023/06/04 07:06:51;;;;;;;;;;;;;;;21.37;30.47;100788.63;5365708;32;33487;-75
2023/06/04 07:09:53;;;;;;;;;;;;;;;21.33;30.59;100789.84;5390590;32;33644;-75
2023/06/04 07:12:55;;;;;;;;;;;;;;;22.85;28.27;100786.44;5379938;32;34292;-76
2023/06/04 07:15:58;;;;;;;;;;;;;;;22.07;28.23;100792.87;5386911;32;34329;-76
2023/06/04 07:19:01;;;;;;;;;;;;;;;23.22;26.64;100792.25;5374830;32;35159;-74
2023/06/04 07:22:03;;;;;;;;;;;;;;;23.80;25.29;100794.41;5379030;32;33734;-75
2023/06/04 07:25:06;;;;;;;;;;;;;;;22.36;27.28;100791.41;5375898;32;33527;-76
2023/06/04 07:28:08;;;;;;;;;;;;;;;22.46;27.52;100801.34;5365871;32;34083;-76
2023/06/04 07:31:10;;;;;;;;;;;;;;;23.54;25.86;100789.47;5387673;32;43918;-74
2023/06/04 07:34:13;;;;;;;;;;;;;;;22.69;27.06;100787.75;5378984;32;33950;-76
2023/06/04 07:37:17;;;;;;;;;;;;;;;22.89;27.25;100787.94;5372447;32;36490;-74
2023/06/04 07:40:19;;;;;;;;;;;;;;;23.84;25.91;100779.75;5369437;32;33015;-74
2023/06/04 07:43:21;;;;;;;;;;;;;;;24.29;24.90;100789.06;5379772;32;34657;-75
2023/06/04 07:46:23;;;;;;;;;;;;;;;23.99;25.50;100781.91;5390513;32;34388;-75
2023/06/04 07:49:26;;;;;;;;;;;;;;;26.02;23.15;100777.34;5381754;32;34010;-75
2023/06/04 07:52:28;;;;;;;;;;;;;;;26.92;21.92;100776.41;5391154;32;33295;-76
2023/06/04 07:55:31;;;;;;;;;;;;;;;25.09;23.42;100785.31;5374349;32;33716;-75
2023/06/04 07:58:33;;;;;;;;;;;;;;;24.92;23.81;100786.00;5394873;32;34735;-76
2023/06/04 08:01:35;;;;;;;;;;;;;;;25.87;22.80;100782.41;5372118;32;36086;-76
2023/06/04 08:04:38;;;;;;;;;;;;;;;25.33;23.62;100792.91;5380288;32;32890;-75
2023/06/04 08:07:41;;;;;;;;;;;;;;;24.40;24.80;100793.47;5388136;32;45672;-75
2023/06/04 08:10:43;;;;;;;;;;;;;;;25.06;24.23;100790.13;5379973;32;33709;-77
2023/06/04 08:13:45;;;;;;;;;;;;;;;25.91;23.33;100792.72;5376836;32;34121;-75
2023/06/04 08:16:48;;;;;;;;;;;;;;;27.90;20.12;100788.75;5383692;32;34211;-75
2023/06/04 08:19:50;;;;;;;;;;;;;;;25.07;23.40;100795.38;5385262;32;34441;-75
2023/06/04 08:22:52;;;;;;;;;;;;;;;26.40;21.60;100784.38;5371856;32;33074;-76
2023/06/04 08:25:54;;;;;;;;;;;;;;;26.05;22.43;100775.22;5381883;32;34591;-76
2023/06/04 08:28:56;;;;;;;;;;;;;;;25.90;22.32;100791.03;5380686;32;34385;-75
2023/06/04 08:31:58;;;;;;;;;;;;;;;26.35;21.82;100787.50;5394349;32;33727;-77
2023/06/04 08:35:01;;;;;;;;;;;;;;;25.74;22.80;100785.44;5397346;32;32792;-75
2023/06/04 08:38:03;;;;;;;;;;;;;;;26.60;21.40;100791.34;5378930;32;34196;-75
2023/06/04 08:41:16;;;;;;;;;;;;;;;25.88;21.73;100793.00;5382085;32;33803;-76
2023/06/04 08:44:18;;;;;;;;;;;;;;;25.46;22.70;100791.75;5379791;32;45209;-75
2023/06/04 08:47:20;;;;;;;;;;;;;;;26.85;21.08;100789.69;5381333;32;33750;-75
2023/06/04 08:50:23;;;;;;;;;;;;;;;26.72;19.92;100784.69;5376493;32;34363;-74
2023/06/04 08:53:25;;;;;;;;;;;;;;;28.35;18.91;100776.75;5381752;32;33679;-74
2023/06/04 08:56:32;;;;;;;;;;;;;;;28.78;18.80;100770.19;5387390;32;33516;-74
2023/06/04 08:59:35;;;;;;;;;;;;;;;28.83;18.52;100775.09;5379088;32;34481;-75
2023/06/04 09:02:38;;;;;;;;;;;;;;;26.08;21.50;100771.34;5365361;32;33773;-76
2023/06/04 09:05:42;;;;;;;;;;;;;;;28.12;19.48;100778.34;5388609;32;33720;-76
2023/06/04 09:08:45;;;;;;;;;;;;;;;25.82;22.10;100766.69;5365764;32;45361;-75
2023/06/04 09:11:55;;;;;;;;;;;;;;;27.23;20.54;100779.56;5375030;32;32234;-74
2023/06/04 09:14:57;;;;;;;;;;;;;;;26.52;21.30;100779.59;5382520;32;34074;-75
2023/06/04 09:17:59;;;;;;;;;;;;;;;26.34;21.69;100777.75;5373985;32;34004;-76
2023/06/04 09:21:05;;;;;;;;;;;;;;;24.22;24.76;100790.59;5382320;32;33904;-74
2023/06/04 09:24:08;;;;;;;;;;;;;;;23.97;25.16;100788.41;5366249;32;33590;-76
2023/06/04 09:27:14;;;;;;;;;;;;;;;24.04;25.03;100790.41;5379547;32;34901;-75
2023/06/04 09:30:16;;;;;;;;;;;;;;;26.09;22.32;100784.69;5368170;32;32963;-75
2023/06/04 09:33:19;;;;;;;;;;;;;;;24.33;24.32;100789.63;5390583;32;34606;-75
2023/06/04 09:36:21;;;;;;;;;;;;;;;24.99;24.08;100787.16;5367724;32;33401;-75
2023/06/04 09:39:23;;;;;;;;;;;;;;;24.68;24.68;100799.87;5382138;32;34073;-75
2023/06/04 09:42:26;;;;;;;;;;;;;;;24.81;24.21;100794.22;5381616;32;34357;-74
2023/06/04 09:45:32;;;;;;;;;;;;;;;25.00;23.97;100779.91;5367969;32;33108;-75
2023/06/04 09:48:34;;;;;;;;;;;;;;;24.73;24.29;100789.56;5390664;32;33543;-75
2023/06/04 09:51:36;;;;;;;;;;;;;;;24.89;24.30;100793.50;5381557;32;33973;-75
2023/06/04 09:54:39;;;;;;;;;;;;;;;24.31;25.09;100796.97;5374754;32;33351;-75
2023/06/04 09:57:44;;;;;;;;;;;;;;;24.67;25.30;100794.66;5379730;32;44181;-75
2023/06/04 10:00:47;;;;;;;;;;;;;;;25.87;23.73;100785.94;5378873;32;33181;-75
2023/06/04 10:03:49;;;;;;;;;;;;;;;25.03;24.46;100783.16;5386843;32;33973;-76
2023/06/04 10:06:51;;;;;;;;;;;;;;;25.53;24.03;100782.09;5378904;32;33725;-76
2023/06/04 10:09:53;;;;;;;;;;;;;;;24.97;25.12;100790.94;5376317;32;34274;-76
2023/06/04 10:13:05;;;;;;;;;;;;;;;23.59;27.06;100806.03;5366514;32;33791;-75
2023/06/04 10:16:07;;;;;;;;;;;;;;;24.68;25.45;100799.87;5374261;32;32548;-75
2023/06/04 10:19:22;;;;;;;;;;;;;;;24.22;26.24;100801.34;5371591;32;36130;-75
2023/06/04 10:22:24;;;;;;;;;;;;;;;23.53;27.36;100798.50;5379010;32;33167;-75
2023/06/04 10:25:26;;;;;;;;;;;;;;;24.31;26.24;100805.03;5380125;32;33431;-75
2023/06/04 10:28:29;;;;;;;;;;;;;;;24.29;25.94;100802.50;5388244;32;33066;-74
2023/06/04 10:31:31;;;;;;;;;;;;;;;23.77;26.43;100801.78;5387984;32;34383;-74
2023/06/04 10:34:33;;;;;;;;;;;;;;;24.66;25.41;100799.16;5367684;32;34518;-75
2023/06/04 10:37:35;;;;;;;;;;;;;;;24.32;25.94;100795.97;5371212;32;34225;-75
2023/06/04 10:40:38;;;;;;;;;;;;;;;24.47;25.82;100800.00;5381239;32;33209;-74
2023/06/04 10:43:40;;;;;;;;;;;;;;;23.56;27.06;100794.69;5363394;32;34203;-75
2023/06/04 10:46:42;;;;;;;;;;;;;;;23.49;27.21;100797.91;5375555;32;45492;-75
2023/06/04 10:49:45;;;;;;;;;;;;;;;23.44;27.09;100786.75;5377113;32;34263;-75
2023/06/04 10:52:51;;;;;;;;;;;;;;;24.09;26.41;100805.25;5390229;32;33796;-76
2023/06/04 10:55:53;;;;;;;;;;;;;;;24.51;26.16;100793.34;5379732;32;34386;-76
2023/06/04 10:58:55;;;;;;;;;;;;;;;24.17;26.66;100795.53;5374630;32;33664;-75
2023/06/04 11:02:09;;;;;;;;;;;;;;;24.19;26.49;100790.88;5372274;32;33118;-74
2023/06/04 11:05:11;;;;;;;;;;;;;;;26.34;23.75;100783.13;5364182;32;45347;-76
2023/06/04 11:08:15;;;;;;;;;;;;;;;27.03;22.92;100784.28;5389163;32;34402;-75
2023/06/04 11:11:17;;;;;;;;;;;;;;;27.34;22.38;100787.41;5368259;32;34546;-74
2023/06/04 11:14:20;;;;;;;;;;;;;;;25.50;24.46;100787.75;5379663;32;33648;-74
2023/06/04 11:17:22;;;;;;;;;;;;;;;26.78;22.87;100787.78;5388062;32;35331;-76
2023/06/04 11:20:24;;;;;;;;;;;;;;;25.60;24.53;100789.41;5386238;32;33322;-75
2023/06/04 11:23:26;;;;;;;;;;;;;;;24.48;25.87;100790.13;5378668;32;33861;-74
2023/06/04 11:26:35;;;;;;;;;;;;;;;26.28;23.72;100778.34;5378533;32;33608;-75
2023/06/04 11:29:43;;;;;;;;;;;;;;;26.86;22.69;100783.31;5392303;32;44696;-74
2023/06/04 11:32:45;;;;;;;;;;;;;;;26.06;23.91;100781.44;5371631;32;33669;-75
2023/06/04 11:35:47;;;;;;;;;;;;;;;25.70;24.10;100781.31;5389747;32;33506;-75
2023/06/04 11:38:57;;;;;;;;;;;;;;;25.56;24.47;100779.09;5372979;32;33133;-75
2023/06/04 11:41:59;;;;;;;;;;;;;;;25.71;25.12;100780.31;5366408;32;33649;-75
2023/06/04 11:45:01;;;;;;;;;;;;;;;26.51;23.45;100784.16;5393076;32;33929;-75
2023/06/04 11:48:05;;;;;;;;;;;;;;;25.08;24.89;100782.75;5386564;32;34241;-77
2023/06/04 11:51:08;;;;;;;;;;;;;;;26.06;23.77;100778.75;5392629;32;33637;-75
2023/06/04 11:54:10;;;;;;;;;;;;;;;26.64;22.77;100781.06;5385298;32;44832;-75
2023/06/04 11:57:13;;;;;;;;;;;;;;;25.03;25.27;100776.94;5386980;32;33080;-77
2023/06/04 12:00:15;;;;;;;;;;;;;;;25.22;25.01;100787.69;5385613;32;33422;-76
2023/06/04 12:03:17;;;;;;;;;;;;;;;25.96;23.93;100784.22;5384718;32;33848;-77
2023/06/04 12:06:20;;;;;;;;;;;;;;;26.05;24.05;100786.00;5393623;32;34376;-74
2023/06/04 12:09:31;;;;;;;;;;;;;;;25.11;25.02;100790.53;5383749;32;34156;-76
2023/06/04 12:12:34;;;;;;;;;;;;;;;25.92;24.61;100780.09;5389603;32;34080;-74
2023/06/04 12:15:36;;;;;;;;;;;;;;;25.04;25.58;100797.44;5371132;32;34232;-76
2023/06/04 12:18:38;;;;;;;;;;;;;;;23.95;26.45;100799.28;5386649;32;34114;-74
2023/06/04 12:21:41;;;;;;;;;;;;;;;24.30;26.41;100798.81;5391591;32;44586;-76
2023/06/04 12:24:53;;;;;;;;;;;;;;;24.14;26.36;100794.94;5367750;32;33918;-75
2023/06/04 12:27:56;;;;;;;;;;;;;;;24.84;25.49;100784.03;5383162;32;33102;-76
2023/06/04 12:30:58;;;;;;;;;;;;;;;25.62;24.07;100783.88;5380226;32;33565;-76
2023/06/04 12:34:00;;;;;;;;;;;;;;;24.78;25.50;100784.59;5373736;32;34130;-76
2023/06/04 12:37:06;;;;;;;;;;;;;;;24.59;26.18;100789.97;5369560;32;34063;-76
2023/06/04 12:40:08;;;;;;;;;;;;;;;24.44;25.97;100794.06;5388991;32;33222;-76
2023/06/04 12:43:11;;;;;;;;;;;;;;;24.72;25.83;100797.75;5396705;32;45235;-77
2023/06/04 12:46:13;;;;;;;;;;;;;;;26.09;24.46;100783.84;5380988;32;33538;-75
2023/06/04 12:49:15;;;;;;;;;;;;;;;26.36;23.85;100777.59;5378433;32;32608;-75
2023/06/04 12:52:17;;;;;;;;;;;;;;;25.36;25.36;100776.47;5380598;32;34429;-76
2023/06/04 12:55:19;;;;;;;;;;;;;;;25.73;24.95;100778.34;5374146;32;34394;-75
2023/06/04 12:58:21;;;;;;;;;;;;;;;25.57;25.42;100772.75;5370937;32;33474;-75
2023/06/04 13:01:24;;;;;;;;;;;;;;;25.72;24.56;100771.25;5381766;32;35331;-76
2023/06/04 13:04:32;;;;;;;;;;;;;;;26.39;23.47;100764.62;5384305;32;35803;-75
2023/06/04 13:07:33;;;;;;;;;;;;;;;26.23;23.75;100761.78;5369334;32;34185;-75
2023/06/04 13:10:35;;;;;;;;;;;;;;;25.61;25.16;100768.72;5376769;32;33045;-75
2023/06/04 13:13:37;;;;;;;;;;;;;;;25.78;25.12;100773.38;5382319;32;33780;-76
2023/06/04 13:16:40;;;;;;;;;;;;;;;26.22;24.08;100770.88;5383899;32;31727;-76
2023/06/04 13:19:42;;;;;;;;;;;;;;;25.69;25.10;100766.13;5383429;32;44819;-75
2023/06/04 13:22:45;;;;;;;;;;;;;;;26.66;23.55;100762.87;5367940;32;34649;-75
2023/06/04 13:25:47;;;;;;;;;;;;;;;26.20;24.15;100760.22;5389418;32;33796;-76
2023/06/04 13:28:49;;;;;;;;;;;;;;;25.66;25.02;100748.47;5382096;32;33361;-76
2023/06/04 13:31:52;;;;;;;;;;;;;;;26.99;23.26;100750.53;5376156;32;33952;-75
2023/06/04 13:34:54;;;;;;;;;;;;;;;26.01;25.02;100746.88;5366611;32;34369;-76
2023/06/04 13:37:57;;;;;;;;;;;;;;;27.28;22.89;100734.06;5380857;32;31828;-76
2023/06/04 13:40:59;;;;;;;;;;;;;;;26.00;24.47;100741.66;5389369;32;34164;-76
2023/06/04 13:44:04;;;;;;;;;;;;;;;25.98;24.19;100738.28;5369987;32;34269;-76
2023/06/04 13:47:06;;;;;;;;;;;;;;;26.08;24.53;100739.03;5390162;32;33610;-74
2023/06/04 13:50:08;;;;;;;;;;;;;;;27.63;22.77;100737.59;5382790;32;33183;-75
2023/06/04 13:53:10;;;;;;;;;;;;;;;26.30;24.28;100744.00;5386776;32;33627;-77
2023/06/04 13:56:13;;;;;;;;;;;;;;;25.99;24.70;100739.97;5380816;32;34927;-75
2023/06/04 13:59:15;;;;;;;;;;;;;;;26.60;24.24;100734.72;5370549;32;33002;-75
2023/06/04 14:02:17;;;;;;;;;;;;;;;26.29;24.62;100731.53;5373859;32;34107;-75
2023/06/04 14:05:19;;;;;;;;;;;;;;;26.92;23.99;100728.75;5367911;32;32989;-76
2023/06/04 14:08:21;;;;;;;;;;;;;;;27.06;23.74;100726.50;5389458;32;34088;-74
2023/06/04 14:11:26;;;;;;;;;;;;;;;27.71;23.05;100724.19;5380472;32;33817;-75
2023/06/04 14:14:36;;;;;;;;;;;;;;;26.67;24.87;100724.16;5375377;32;32887;-76
2023/06/04 14:17:38;;;;;;;;;;;;;;;26.29;24.96;100712.69;5381650;32;33856;-77
2023/06/04 14:20:41;;;;;;;;;;;;;;;27.35;23.85;100715.37;5380742;32;44585;-77
2023/06/04 14:23:44;;;;;;;;;;;;;;;26.51;25.30;100716.78;5375723;32;34268;-76
2023/06/04 14:26:46;;;;;;;;;;;;;;;27.13;24.58;100714.94;5380179;32;34258;-75
2023/06/04 14:29:48;;;;;;;;;;;;;;;25.36;26.64;100725.34;5390390;32;34354;-78
2023/06/04 14:32:51;;;;;;;;;;;;;;;25.07;27.35;100721.91;5384773;32;33197;-77
2023/06/04 14:35:53;;;;;;;;;;;;;;;24.84;27.44;100724.87;5400055;32;34332;-76
2023/06/04 14:38:56;;;;;;;;;;;;;;;24.88;27.81;100716.53;5392348;32;33658;-77
2023/06/04 14:41:58;;;;;;;;;;;;;;;25.39;27.59;100722.38;5393075;32;33487;-77
2023/06/04 14:45:01;;;;;;;;;;;;;;;25.15;27.79;100713.97;5375280;32;33658;-76
2023/06/04 14:48:04;;;;;;;;;;;;;;;25.51;27.25;100711.44;5378170;32;34367;-75
2023/06/04 14:51:16;;;;;;;;;;;;;;;25.75;27.00;100709.06;5386127;32;44495;-74
2023/06/04 14:54:18;;;;;;;;;;;;;;;25.30;27.74;100701.72;5380229;32;34181;-75
2023/06/04 14:57:21;;;;;;;;;;;;;;;25.70;27.02;100705.94;5370367;32;38092;-79
2023/06/04 15:00:23;;;;;;;;;;;;;;;24.82;28.32;100708.06;5375194;32;33816;-76
2023/06/04 15:03:28;;;;;;;;;;;;;;;24.88;28.12;100705.78;5379621;32;33670;-76
2023/06/04 15:06:30;;;;;;;;;;;;;;;25.10;27.21;100710.84;5388367;32;34057;-75
2023/06/04 15:09:32;;;;;;;;;;;;;;;24.66;27.93;100705.09;5379802;32;33236;-77
2023/06/04 15:12:38;;;;;;;;;;;;;;;24.28;28.81;100704.09;5387181;32;33696;-75
2023/06/04 15:15:40;;;;;;;;;;;;;;;24.10;29.80;100699.56;5381196;32;33690;-75
2023/06/04 15:18:42;;;;;;;;;;;;;;;24.96;30.15;100695.16;5368174;32;44537;-75
2023/06/04 15:21:44;;;;;;;;;;;;;;;24.04;32.52;100687.53;5364631;32;33748;-76
2023/06/04 15:24:46;;;;;;;;;;;;;;;23.26;34.85;100693.63;5385596;32;34061;-75
2023/06/04 15:27:48;;;;;;;;;;;;;;;23.26;35.33;100694.47;5371922;32;33865;-76
2023/06/04 15:30:50;;;;;;;;;;;;;;;23.54;35.55;100695.56;5381662;32;33617;-75
2023/06/04 15:33:53;;;;;;;;;;;;;;;23.43;36.46;100701.03;5373090;32;33485;-76
2023/06/04 15:36:55;;;;;;;;;;;;;;;22.65;38.54;100697.87;5390380;32;32021;-76